Time;durP1;ratioP1;P1;durP2;ratioP2;P2;SDS_P1;SDS_P2;PMS_P1;PMS_P2;Temp;Humidity;BMP_temperature;BMP_pressure;BME280_temperature;BME280_humidity;BME280_pressure;Samples;Min_cycle;Max_cycle;Signal;HPM_P1;HPM_P2
2023/06/27 00:00:46;;;;;;;8.80;5.20;;;;;;;20.05;62.13;100449.38;105497;1289;61310;-84
2023/06/27 00:03:36;;;;;;;11.30;6.20;;;;;;;19.94;62.30;100453.20;105418;1286;59764;-84
2023/06/27 00:06:22;;;;;;;8.30;5.00;;;;;;;19.85;62.52;100452.65;105346;1285;73153;-84
2023/06/27 00:09:14;;;;;;;11.00;4.50;;;;;;;19.83;62.43;100453.60;105269;1288;68656;-84
2023/06/27 00:12:00;;;;;;;5.80;4.60;;;;;;;19.80;62.52;100459.40;105438;1285;73958;-84
2023/06/27 00:14:47;;;;;;;13.10;4.70;;;;;;;19.75;62.48;100460.73;105382;1288;62286;-84
2023/06/27 00:17:34;;;;;;;;;;;;;;;19.70;62.59;100454.02;105332;1290;61255;-84
2023/06/27 00:20:20;;;;;;;8.70;4.30;;;;;;;19.66;62.63;100447.44;105386;1286;75194;-84
2023/06/27 00:23:17;;;;;;;6.30;4.40;;;;;;;19.63;62.68;100446.02;105321;1288;68296;-84
2023/06/27 00:26:03;;;;;;;9.40;4.60;;;;;;;19.57;62.81;100446.38;105237;1291;71489;-84
2023/06/27 00:28:50;;;;;;;6.80;4.30;;;;;;;19.52;62.87;100459.60;105389;1288;61190;-84
2023/06/27 00:31:36;;;;;;;9.70;4.80;;;;;;;19.50;62.82;100458.80;105217;1288;61211;-86
2023/06/27 00:34:22;;;;;;;7.30;4.00;;;;;;;19.47;63.01;100459.11;105321;1288;73461;-86
2023/06/27 00:37:08;;;;;;;12.00;4.90;;;;;;;19.43;62.95;100453.23;105339;1289;68043;-86
2023/06/27 00:39:54;;;;;;;5.90;4.30;;;;;;;19.38;63.16;100458.09;105382;1290;71263;-84
2023/06/27 00:42:40;;;;;;;8.50;4.30;;;;;;;19.35;63.16;100465.55;105465;1290;60834;-84
2023/06/27 00:45:27;;;;;;;5.70;4.10;;;;;;;19.33;63.07;100467.77;105293;1289;61727;-84
2023/06/27 00:48:14;;;;;;;8.50;4.10;;;;;;;19.32;63.25;100476.89;105290;1288;77564;-84
2023/06/27 00:51:02;;;;;;;6.00;4.70;;;;;;;19.25;63.27;100491.11;105387;1288;67082;-84
2023/06/27 00:53:48;;;;;;;7.00;4.60;;;;;;;19.20;63.41;100488.42;106458;1286;71383;-84
2023/06/27 00:56:35;;;;;;;14.00;4.50;;;;;;;19.18;63.42;100476.11;106319;1286;59005;-84
2023/06/27 00:59:22;;;;;;;8.80;4.60;;;;;;;19.16;63.43;100478.01;106357;1287;60223;-84
2023/06/27 01:02:08;;;;;;;8.20;4.60;;;;;;;19.12;63.50;100482.02;106483;1286;73312;-85
2023/06/27 01:04:54;;;;;;;;;;;;;;;19.09;63.51;100479.21;106368;1286;68600;-84
2023/06/27 01:08:04;;;;;;;7.20;4.10;;;;;;;19.05;63.59;100476.13;106380;1288;71392;-84
2023/06/27 01:11:02;;;;;;;7.90;4.10;;;;;;;19.02;63.67;100479.77;105323;1286;63708;-84
2023/06/27 01:13:50;;;;;;;11.80;4.50;;;;;;;19.02;63.64;100481.90;105533;1288;61226;-84
2023/06/27 01:16:38;;;;;;;4.60;3.70;;;;;;;19.00;63.74;100479.04;105318;1289;73372;-84
2023/06/27 01:19:28;;;;;;;8.40;3.90;;;;;;;18.99;63.74;100467.18;105406;1291;67515;-84
2023/06/27 01:22:18;;;;;;;9.30;4.20;;;;;;;18.97;63.67;100464.48;105370;1286;72360;-84
2023/06/27 01:25:07;;;;;;;4.90;3.70;;;;;;;18.93;63.81;100460.35;98153;1286;10002585;-84
2023/06/27 01:27:55;;;;;;;7.40;3.90;;;;;;;18.92;63.85;100470.52;105573;1287;76058;-84
2023/06/27 01:30:41;;;;;;;9.80;3.80;;;;;;;18.89;63.85;100464.23;105349;1288;67374;-84
2023/06/27 01:33:34;;;;;;;6.50;3.50;;;;;;;18.84;63.85;100463.10;105391;1286;74539;-84
2023/06/27 01:36:26;;;;;;;10.10;3.30;;;;;;;18.79;63.98;100453.23;105385;1286;61249;-84
2023/06/27 01:39:29;;;;;;;8.50;3.30;;;;;;;18.74;64.03;100454.52;105462;1286;58949;-84
2023/06/27 01:42:23;;;;;;;4.40;3.30;;;;;;;18.72;64.16;100454.84;105299;1286;74644;-84
2023/06/27 01:45:12;;;;;;;7.30;3.50;;;;;;;18.67;64.01;100457.05;105272;1288;300356;-84
2023/06/27 01:47:59;;;;;;;7.20;3.60;;;;;;;18.63;64.20;100454.61;105436;1286;71188;-84
2023/06/27 01:50:45;;;;;;;5.10;2.70;;;;;;;18.60;64.20;100454.05;105337;1287;61445;-84
2023/06/27 01:53:31;;;;;;;7.10;2.60;;;;;;;18.60;64.31;100463.48;105400;1285;61080;-84
2023/06/27 01:56:17;;;;;;;;;;;;;;;18.59;64.27;100471.23;105361;1287;74183;-85
2023/06/27 01:59:03;;;;;;;;;;;;;;;18.52;64.32;100470.69;105354;1286;69989;-84
2023/06/27 02:01:50;;;;;;;13.20;2.50;;;;;;;18.46;64.35;100477.60;105417;1286;71302;-84
2023/06/27 02:04:36;;;;;;;6.50;2.90;;;;;;;18.42;64.28;100478.85;105464;1286;61289;-84
2023/06/27 02:07:22;;;;;;;4.80;2.70;;;;;;;18.38;64.33;100472.95;105458;1286;59645;-84
2023/06/27 02:10:09;;;;;;;15.00;2.90;;;;;;;18.37;64.56;100473.52;105433;1288;73384;-84
2023/06/27 02:12:55;;;;;;;7.70;2.70;;;;;;;18.34;64.41;100468.30;105352;1288;67323;-84
2023/06/27 02:15:41;;;;;;;8.00;2.40;;;;;;;18.31;64.53;100463.05;105338;1285;71167;-84
2023/06/27 02:18:27;;;;;;;8.90;2.80;;;;;;;18.28;64.52;100461.09;101543;1289;5161131;-84
2023/06/27 02:21:13;;;;;;;4.00;2.40;;;;;;;18.25;64.70;100470.15;105248;1287;60108;-84
2023/06/27 02:23:59;;;;;;;6.20;2.30;;;;;;;18.21;64.65;100466.33;105317;1286;74568;-84
2023/06/27 02:26:46;;;;;;;3.80;2.10;;;;;;;18.19;64.65;100457.87;105282;1289;71100;-84
2023/06/27 02:29:32;;;;;;;;;;;;;;;18.14;64.61;100454.51;105421;1285;71581;-84
2023/06/27 02:32:18;;;;;;;7.90;2.60;;;;;;;18.10;64.74;100459.73;105470;1285;61161;-84
2023/06/27 02:35:05;;;;;;;7.60;3.00;;;;;;;18.06;64.64;100456.44;105475;1284;61176;-84
2023/06/27 02:37:51;;;;;;;4.10;2.20;;;;;;;18.05;64.85;100451.98;105314;1287;72500;-84
2023/06/27 02:40:37;;;;;;;5.90;2.40;;;;;;;18.03;64.77;100456.96;105316;1285;67438;-84
2023/06/27 02:43:23;;;;;;;5.90;2.20;;;;;;;17.96;64.94;100460.63;105454;1285;71547;-84
2023/06/27 02:46:09;;;;;;;10.00;2.70;;;;;;;17.94;64.97;100463.17;105250;1287;61165;-84
2023/06/27 02:48:55;;;;;;;5.10;2.00;;;;;;;17.91;64.93;100462.77;105498;1289;61027;-84
2023/06/27 02:51:41;;;;;;;15.30;2.80;;;;;;;17.89;65.00;100464.09;105498;1288;75983;-84
2023/06/27 02:54:27;;;;;;;12.60;3.10;;;;;;;17.87;65.02;100466.97;105458;1285;67545;-84
2023/06/27 02:57:14;;;;;;;9.00;3.10;;;;;;;17.86;65.18;100468.92;105219;1288;72356;-84
2023/06/27 03:00:00;;;;;;;3.60;2.00;;;;;;;17.84;65.10;100472.34;105141;1288;61257;-84
2023/06/27 03:02:46;;;;;;;5.90;2.30;;;;;;;17.84;65.11;100473.91;105382;1286;61283;-84
2023/06/27 03:05:33;;;;;;;9.90;2.30;;;;;;;17.82;65.12;100475.95;105047;1287;75005;-84
2023/06/27 03:08:19;;;;;;;8.60;2.20;;;;;;;17.81;65.23;100473.89;105009;1286;67252;-84
2023/06/27 03:11:05;;;;;;;3.00;1.90;;;;;;;17.80;65.25;100478.48;105285;1287;71992;-84
2023/06/27 03:13:51;;;;;;;7.80;2.00;;;;;;;17.77;65.10;100481.77;105379;1287;59464;-84
2023/06/27 03:16:37;;;;;;;4.50;2.30;;;;;;;17.75;65.28;100486.39;105160;1291;61266;-84
2023/06/27 03:19:24;;;;;;;7.30;2.90;;;;;;;17.76;65.23;100489.31;105225;1287;73064;-84
2023/06/27 03:22:10;;;;;;;7.70;2.00;;;;;;;17.77;65.26;100492.41;105327;1286;67543;-84
2023/06/27 03:24:56;;;;;;;6.30;2.00;;;;;;;17.75;65.30;100494.41;105143;1286;74079;-84
2023/06/27 03:27:42;;;;;;;4.70;2.20;;;;;;;17.74;65.33;100500.54;105035;1286;61427;-84
2023/06/27 03:30:29;;;;;;;5.70;2.10;;;;;;;17.77;65.41;100502.52;105076;1286;61250;-84
2023/06/27 03:33:15;;;;;;;7.40;2.10;;;;;;;17.77;65.39;100506.71;105382;1286;76217;-84
2023/06/27 03:36:02;;;;;;;3.50;1.70;;;;;;;17.73;65.40;100509.86;105228;1285;69062;-84
2023/06/27 03:38:50;;;;;;;7.30;2.30;;;;;;;17.71;65.45;100519.02;105240;1286;71183;-84
2023/06/27 03:41:37;;;;;;;9.50;2.20;;;;;;;17.71;65.54;100520.94;105489;1285;61270;-84
2023/06/27 03:44:23;;;;;;;4.50;2.00;;;;;;;17.70;65.63;100532.13;105505;1286;59809;-84
2023/06/27 03:47:09;;;;;;;5.00;2.00;;;;;;;17.72;65.59;100526.81;105351;1286;73084;-84
2023/06/27 03:49:55;;;;;;;4.00;1.80;;;;;;;17.76;65.68;100527.69;105353;1287;67772;-84
2023/06/27 03:52:41;;;;;;;6.90;2.00;;;;;;;17.79;65.63;100531.34;105459;1288;72347;-84
2023/06/27 03:55:27;;;;;;;8.30;1.90;;;;;;;17.85;65.71;100531.77;105287;1286;61195;-84
2023/06/27 03:58:13;;;;;;;10.80;1.80;;;;;;;17.89;65.55;100532.29;105097;1286;61305;-84
2023/06/27 04:00:59;;;;;;;5.30;1.80;;;;;;;17.91;65.59;100532.58;105257;1287;73261;-84
2023/06/27 04:03:46;;;;;;;7.80;1.80;;;;;;;17.89;65.61;100532.28;105377;1286;67182;-84
2023/06/27 04:06:32;;;;;;;9.70;2.90;;;;;;;17.92;65.61;100533.73;105373;1286;71286;-84
2023/06/27 04:09:18;;;;;;;9.10;1.60;;;;;;;17.94;65.53;100540.59;105453;1286;61884;-84
2023/06/27 04:12:04;;;;;;;3.90;1.70;;;;;;;17.99;65.68;100543.70;105209;1286;61701;-84
2023/06/27 04:14:50;;;;;;;6.60;1.60;;;;;;;18.07;65.71;100545.90;105325;1286;73303;-84
2023/06/27 04:17:37;;;;;;;5.80;2.00;;;;;;;18.11;65.56;100543.09;105267;1284;67811;-84
2023/06/27 04:20:23;;;;;;;9.80;2.30;;;;;;;18.11;65.57;100547.29;105405;1286;71370;-84
2023/06/27 04:23:09;;;;;;;5.20;1.70;;;;;;;18.13;65.62;100545.59;105192;1287;61238;-84
2023/06/27 04:26:02;;;;;;;10.20;2.10;;;;;;;18.18;65.61;100546.57;105315;1286;61249;-84
2023/06/27 04:28:49;;;;;;;4.30;1.60;;;;;;;18.30;65.57;100547.35;105276;1286;74350;-84
2023/06/27 04:31:35;;;;;;;6.70;1.80;;;;;;;18.49;65.54;100551.14;105463;1289;68152;-85
2023/06/27 04:34:21;;;;;;;6.20;1.90;;;;;;;18.56;65.24;100553.25;105314;1287;75437;-84
2023/06/27 04:37:07;;;;;;;9.40;1.80;;;;;;;18.54;65.32;100554.23;105343;1288;61237;-84
2023/06/27 04:39:53;;;;;;;7.00;2.30;;;;;;;18.47;65.25;100550.34;105374;1285;61071;-84
2023/06/27 04:42:39;;;;;;;7.50;1.70;;;;;;;18.45;65.41;100550.83;105309;1286;73227;-84
2023/06/27 04:45:26;;;;;;;10.10;1.90;;;;;;;18.45;65.28;100551.34;105420;1287;69049;-84
2023/06/27 04:48:12;;;;;;;5.80;1.80;;;;;;;18.45;65.35;100551.70;105214;1291;74085;-84
2023/06/27 04:50:58;;;;;;;9.10;2.00;;;;;;;18.49;65.45;100552.68;105251;1285;61362;-84
2023/06/27 04:53:44;;;;;;;17.40;2.00;;;;;;;18.58;65.20;100552.98;105274;1285;61183;-84
2023/06/27 04:56:30;;;;;;;6.70;1.90;;;;;;;18.64;65.17;100555.86;105274;1286;75054;-84
2023/06/27 04:59:18;;;;;;;6.20;2.60;;;;;;;18.78;65.07;100558.42;105117;1287;67362;-84
2023/06/27 05:02:05;;;;;;;8.40;1.70;;;;;;;18.96;65.09;100558.55;105435;1287;72498;-84
2023/06/27 05:04:51;;;;;;;7.50;1.60;;;;;;;19.12;65.01;100560.13;97838;1288;5002909;-84
2023/06/27 05:07:37;;;;;;;9.20;1.90;;;;;;;19.25;64.83;100561.19;105315;1287;75573;-84
2023/06/27 05:10:23;;;;;;;7.30;2.20;;;;;;;19.46;64.69;100561.66;105244;1288;68472;-84
2023/06/27 05:13:10;;;;;;;5.40;2.00;;;;;;;19.78;64.72;100560.42;105118;1288;70266;-85
2023/06/27 05:15:56;;;;;;;7.20;1.50;;;;;;;20.09;64.68;100556.76;105236;1289;61192;-87
2023/06/27 05:18:42;;;;;;;;;;;;;;;20.43;64.50;100557.60;105200;1288;64038;-85
2023/06/27 05:21:29;;;;;;;6.90;1.70;;;;;;;20.82;64.37;100558.83;105258;1287;74034;-84
2023/06/27 05:24:15;;;;;;;6.70;1.80;;;;;;;21.17;64.11;100555.66;105280;1286;68196;-84
2023/06/27 05:27:03;;;;;;;7.40;2.00;;;;;;;21.34;63.65;100560.73;105198;1287;71244;-84
2023/06/27 05:29:49;;;;;;;5.30;2.00;;;;;;;21.44;63.70;100566.59;105401;1290;61304;-84
2023/06/27 05:32:35;;;;;;;3.50;1.50;;;;;;;21.65;63.59;100560.43;105233;1287;60288;-85
2023/06/27 05:35:22;;;;;;;3.80;1.50;;;;;;;21.86;63.49;100566.39;105228;1288;77627;-84
2023/06/27 05:38:08;;;;;;;5.80;1.40;;;;;;;22.06;63.23;100564.27;105237;1288;67569;-84
2023/06/27 05:40:54;;;;;;;6.40;1.80;;;;;;;22.10;62.95;100565.79;105461;1286;71279;-85
2023/06/27 05:43:40;;;;;;;6.00;1.60;;;;;;;22.10;62.95;100569.43;105383;1288;61223;-84
2023/06/27 05:46:26;;;;;;;6.00;1.90;;;;;;;21.93;62.75;100570.69;105381;1288;59984;-85
2023/06/27 05:49:12;;;;;;;5.50;1.60;;;;;;;21.85;62.60;100574.41;105234;1287;75127;-85
2023/06/27 05:51:58;;;;;;;4.90;1.70;;;;;;;21.61;62.49;100572.95;105309;1288;66682;-85
2023/06/27 05:54:45;;;;;;;4.60;1.60;;;;;;;21.48;62.25;100571.84;105367;1287;74257;-85
2023/06/27 05:57:31;;;;;;;4.10;1.60;;;;;;;21.34;62.39;100571.61;105274;1286;60982;-85
2023/06/27 06:00:17;;;;;;;6.40;1.70;;;;;;;21.32;62.08;100576.82;105232;1288;61658;-85
2023/06/27 06:03:03;;;;;;;7.60;1.90;;;;;;;21.23;61.98;100571.08;105174;1287;73934;-85
2023/06/27 06:05:50;;;;;;;3.30;1.40;;;;;;;21.23;62.01;100570.92;105239;1287;70035;-85
2023/06/27 06:08:36;;;;;;;8.20;1.70;;;;;;;21.33;61.82;100574.00;105345;1288;71196;-84
2023/06/27 06:11:22;;;;;;;6.70;1.50;;;;;;;21.26;61.32;100577.91;105500;1285;61286;-85
2023/06/27 06:14:08;;;;;;;6.40;2.20;;;;;;;21.42;61.49;100579.20;105466;1285;61169;-85
2023/06/27 06:16:54;;;;;;;5.30;1.50;;;;;;;21.41;61.16;100579.26;105516;1284;73233;-85
2023/06/27 06:19:41;;;;;;;11.90;1.90;;;;;;;21.40;61.12;100578.10;105322;1286;68684;-85
2023/06/27 06:22:27;;;;;;;4.80;1.50;;;;;;;21.59;60.92;100575.51;105476;1286;70857;-85
2023/06/27 06:25:13;;;;;;;17.30;2.60;;;;;;;21.91;60.97;100583.67;105484;1286;61979;-85
2023/06/27 06:27:59;;;;;;;6.20;1.60;;;;;;;22.08;60.56;100588.34;105308;1286;61154;-85
2023/06/27 06:30:45;;;;;;;6.40;1.30;;;;;;;21.99;60.34;100589.77;105350;1286;74948;-85
2023/06/27 06:33:32;;;;;;;5.40;1.70;;;;;;;21.92;60.10;100589.39;105494;1285;66166;-84
2023/06/27 06:36:18;;;;;;;;;;;;;;;21.92;60.21;100591.48;105470;1288;71655;-86
2023/06/27 06:39:05;;;;;;;6.00;1.60;;;;;;;22.21;60.01;100588.44;105496;1286;61067;-86
2023/06/27 06:41:51;;;;;;;9.00;1.80;;;;;;;22.64;59.97;100583.08;105342;1287;59381;-88
2023/06/27 06:44:37;;;;;;;;;;;;;;;23.59;59.55;100587.95;105383;1287;73156;-88
2023/06/27 06:47:23;;;;;;;;;;;;;;;23.84;58.49;100588.27;105439;1286;67270;-88
2023/06/27 06:50:09;;;;;;;5.00;1.40;;;;;;;24.72;58.89;100583.22;105450;1286;71998;-88
2023/06/27 06:52:56;;;;;;;4.70;1.80;;;;;;;26.11;58.38;100584.07;105423;1285;59678;-89
2023/06/27 06:55:42;;;;;;;8.20;1.70;;;;;;;27.22;57.79;100584.45;105381;1286;61189;-88
2023/06/27 06:58:28;;;;;;;7.50;2.50;;;;;;;27.59;57.52;100593.41;105356;1290;74285;-88
2023/06/27 07:01:14;;;;;;;5.60;1.60;;;;;;;26.90;57.11;100590.54;105394;1288;68089;-88
2023/06/27 07:04:01;;;;;;;3.00;1.40;;;;;;;26.71;57.17;100594.27;105558;1289;72034;-88
2023/06/27 07:06:48;;;;;;;;;;;;;;;26.44;56.88;100595.83;105363;1286;59574;-88
2023/06/27 07:09:34;;;;;;;4.40;1.40;;;;;;;26.58;56.81;100596.10;105302;1287;61194;-88
2023/06/27 07:12:20;;;;;;;5.10;2.00;;;;;;;26.81;55.86;100595.91;105277;1288;73623;-88
2023/06/27 07:15:08;;;;;;;5.30;1.80;;;;;;;26.39;55.60;100601.26;105163;1290;67127;-88
2023/06/27 07:17:54;;;;;;;6.70;2.50;;;;;;;27.66;55.68;100598.07;105243;1287;71269;-87
2023/06/27 07:20:40;;;;;;;4.80;1.60;;;;;;;28.30;54.36;100600.72;105394;1287;61326;-88
2023/06/27 07:23:27;;;;;;;3.90;1.60;;;;;;;28.30;54.05;100601.48;105288;1288;61310;-88
2023/06/27 07:26:13;;;;;;;8.90;1.60;;;;;;;27.63;53.43;100603.55;105296;1288;73504;-87
2023/06/27 07:29:00;;;;;;;4.20;1.50;;;;;;;27.46;53.18;100608.05;105445;1287;68310;-87
2023/06/27 07:31:46;;;;;;;6.60;1.70;;;;;;;27.54;53.46;100603.20;105222;1288;73380;-87
2023/06/27 07:34:33;;;;;;;3.70;1.60;;;;;;;28.29;53.47;100600.83;105269;1288;61200;-87
2023/06/27 07:37:19;;;;;;;3.90;1.50;;;;;;;28.96;52.29;100597.66;105251;1288;61292;-87
2023/06/27 07:40:07;;;;;;;5.70;1.70;;;;;;;28.92;51.81;100597.53;105357;1287;73973;-87
2023/06/27 07:42:53;;;;;;;5.00;1.70;;;;;;;28.35;51.66;100605.20;105424;1288;67940;-88
2023/06/27 07:45:39;;;;;;;2.50;1.40;;;;;;;27.89;51.41;100603.52;105218;1288;73326;-87
2023/06/27 07:48:25;;;;;;;;;;;;;;;29.08;50.30;100587.63;105283;1290;61288;-87
2023/06/27 07:51:11;;;;;;;4.40;1.20;;;;;;;30.55;49.58;100591.50;105306;1288;61035;-88
2023/06/27 07:54:00;;;;;;;6.70;1.50;;;;;;;31.63;48.25;100591.36;105340;1288;73764;-87
2023/06/27 07:56:47;;;;;;;4.30;1.60;;;;;;;31.69;48.56;100589.20;105219;1288;67450;-87
2023/06/27 07:59:33;;;;;;;7.90;1.50;;;;;;;32.19;47.83;100594.23;105213;1288;71379;-88
2023/06/27 08:02:20;;;;;;;3.30;1.40;;;;;;;32.96;46.98;100596.64;105335;1293;61208;-87
2023/06/27 08:05:07;;;;;;;4.40;1.60;;;;;;;34.50;46.81;100586.48;105414;1288;61089;-88
2023/06/27 08:07:53;;;;;;;5.20;1.40;;;;;;;35.72;45.93;100587.60;105186;1288;73407;-88
2023/06/27 08:10:40;;;;;;;6.20;1.50;;;;;;;36.85;45.88;100586.60;105334;1288;67495;-88
2023/06/27 08:13:27;;;;;;;8.30;1.90;;;;;;;38.12;44.66;100583.89;105297;1286;71204;-88
2023/06/27 08:16:13;;;;;;;3.30;1.70;;;;;;;38.98;43.42;100576.16;105302;1288;61276;-88
2023/06/27 08:19:00;;;;;;;2.90;2.10;;;;;;;39.49;42.83;100578.41;105732;1287;273729;-89
2023/06/27 08:21:46;;;;;;;5.30;2.00;;;;;;;39.92;42.18;100587.38;106484;1287;73417;-88
2023/06/27 08:24:32;;;;;;;3.50;2.10;;;;;;;39.89;41.68;100578.36;106431;1287;67232;-89
2023/06/27 08:27:18;;;;;;;3.60;2.10;;;;;;;40.82;40.30;100582.83;106324;1286;72026;-87
2023/06/27 08:30:05;;;;;;;6.60;2.90;;;;;;;41.20;39.07;100576.50;105415;1287;61242;-87
2023/06/27 08:32:52;;;;;;;5.20;2.70;;;;;;;41.95;38.51;100571.25;105357;1288;61551;-87
2023/06/27 08:35:39;;;;;;;5.20;2.80;;;;;;;42.99;37.57;100580.73;105307;1287;74585;-87
2023/06/27 08:38:25;;;;;;;4.40;2.10;;;;;;;41.69;36.62;100574.40;105401;1288;68072;-87
2023/06/27 08:41:13;;;;;;;6.20;1.60;;;;;;;41.25;36.25;100572.41;105364;1287;73114;-86
2023/06/27 08:43:59;;;;;;;3.90;1.90;;;;;;;39.74;35.07;100572.19;105358;1287;61253;-86
2023/06/27 08:46:47;;;;;;;3.20;1.50;;;;;;;38.40;34.44;100568.22;105363;1287;61262;-87
2023/06/27 08:49:34;;;;;;;10.50;2.40;;;;;;;36.42;33.31;100567.41;105401;1287;73362;-86
2023/06/27 08:52:21;;;;;;;3.50;1.70;;;;;;;35.54;33.13;100571.48;105463;1288;67297;-85
2023/06/27 08:55:13;;;;;;;5.20;1.40;;;;;;;34.77;32.72;100567.77;105449;1290;71218;-86
2023/06/27 08:58:03;;;;;;;4.60;1.60;;;;;;;33.23;32.56;100569.82;105510;1288;60792;-86
2023/06/27 09:00:51;;;;;;;4.20;1.50;;;;;;;32.05;32.27;100575.63;106261;1287;60371;-86
2023/06/27 09:03:37;;;;;;;4.20;1.40;;;;;;;30.73;32.17;100573.02;106439;1287;73401;-86
2023/06/27 09:06:23;;;;;;;3.70;1.80;;;;;;;29.97;32.46;100571.04;106264;1287;68542;-87
2023/06/27 09:09:12;;;;;;;4.90;1.70;;;;;;;29.33;32.42;100574.02;105446;1288;71786;-86
2023/06/27 09:12:02;;;;;;;8.00;2.20;;;;;;;28.43;32.52;100573.46;105354;1286;61282;-86
2023/06/27 09:14:48;;;;;;;2.80;1.60;;;;;;;27.60;32.65;100576.15;105613;1285;63106;-85
2023/06/27 09:17:35;;;;;;;;;;;;;;;26.84;32.92;100584.66;105384;1286;74942;-85
2023/06/27 09:20:21;;;;;;;6.60;1.80;;;;;;;26.20;33.21;100582.46;105417;1288;67467;-85
2023/06/27 09:23:08;;;;;;;3.20;1.90;;;;;;;25.50;33.38;100574.45;105404;1285;71160;-87
2023/06/27 09:26:10;;;;;;;6.20;1.70;;;;;;;24.98;34.00;100573.81;105351;1286;59365;-88
2023/06/27 09:28:59;;;;;;;5.00;1.60;;;;;;;24.68;34.38;100571.69;105523;1289;61171;-87
2023/06/27 09:31:45;;;;;;;5.00;1.90;;;;;;;24.51;34.86;100565.91;106570;1285;73401;-89
2023/06/27 09:34:31;;;;;;;5.20;2.30;;;;;;;24.49;35.25;100560.80;106312;1287;67303;-88
2023/06/27 09:37:19;;;;;;;5.70;1.90;;;;;;;24.57;35.28;100547.30;106083;1287;71186;-88
2023/06/27 09:40:17;;;;;;;3.50;1.80;;;;;;;24.48;35.36;100541.98;105503;1286;61372;-88
2023/06/27 09:43:08;;;;;;;5.40;1.80;;;;;;;24.30;35.64;100544.80;105367;1286;61206;-88
2023/06/27 09:46:01;;;;;;;4.30;1.90;;;;;;;24.14;35.92;100548.77;105618;1286;73081;-88
2023/06/27 09:48:47;;;;;;;5.30;1.50;;;;;;;24.16;36.00;100548.30;105373;1286;69074;-88
2023/06/27 09:51:33;;;;;;;3.40;1.60;;;;;;;24.12;36.16;100547.18;105527;1287;71158;-88
2023/06/27 09:54:21;;;;;;;10.40;1.60;;;;;;;24.01;36.57;100549.21;105351;1286;60736;-88
2023/06/27 09:57:12;;;;;;;10.40;1.80;;;;;;;23.97;36.62;100548.77;105057;1288;61216;-88
2023/06/27 09:59:59;;;;;;;3.30;1.40;;;;;;;23.89;36.84;100542.86;104883;1288;73810;-88
2023/06/27 10:02:50;;;;;;;3.20;1.40;;;;;;;23.86;36.99;100544.55;105397;1285;67468;-88
2023/06/27 10:05:36;;;;;;;4.50;1.80;;;;;;;23.63;37.11;100548.09;105445;1286;71293;-88
2023/06/27 10:08:22;;;;;;;10.60;1.70;;;;;;;23.34;37.62;100547.14;105357;1286;61226;-88
2023/06/27 10:11:09;;;;;;;8.70;1.60;;;;;;;23.03;37.62;100547.04;105253;1286;60124;-88
2023/06/27 10:13:55;;;;;;;6.70;2.10;;;;;;;22.74;37.92;100548.90;105253;1286;74067;-88
2023/06/27 10:16:42;;;;;;;;;;;;;;;22.43;38.15;100554.81;105322;1287;67315;-88
2023/06/27 10:34:01;;;;;;;7.40;1.80;;;;;;;21.33;41.41;100591.47;105654;1282;614779;-86
2023/06/27 10:37:52;;;;;;;5.30;1.60;;;;;;;20.75;41.87;100603.39;102121;1283;5379977;-86
2023/06/27 10:41:33;;;;;;;2.50;1.40;;;;;;;20.51;41.86;100598.00;105391;1291;62928;-86
2023/06/27 10:45:24;;;;;;;6.40;1.50;;;;;;;20.31;42.06;100600.67;104780;1296;71736;-86
2023/06/27 10:49:10;;;;;;;4.80;1.40;;;;;;;20.20;42.34;100602.70;104245;1306;67403;-86
2023/06/27 10:52:40;;;;;;;1.60;1.20;;;;;;;20.22;42.57;100598.22;104178;1302;71114;-86
2023/06/27 10:56:10;;;;;;;2.80;1.50;;;;;;;20.27;42.85;100600.59;104157;1305;59083;-86
2023/06/27 10:59:57;;;;;;;3.00;1.60;;;;;;;20.39;43.14;100598.30;104314;1303;59355;-87
2023/06/27 11:03:43;;;;;;;6.50;1.70;;;;;;;20.57;43.31;100593.98;104242;1303;72127;-86
2023/06/27 11:07:29;;;;;;;5.30;1.90;;;;;;;20.76;43.65;100593.88;104170;1303;68684;-86
2023/06/27 11:11:28;;;;;;;7.90;3.00;;;;;;;20.98;43.74;100591.14;104136;1306;71321;-86
2023/06/27 11:15:14;;;;;;;6.80;1.60;;;;;;;21.27;43.97;100584.73;104189;1306;60233;-86
2023/06/27 11:19:00;;;;;;;5.10;1.70;;;;;;;21.48;44.11;100589.50;104491;1299;61277;-86
2023/06/27 11:22:46;;;;;;;4.20;1.50;;;;;;;21.67;44.13;100581.34;105059;1291;71811;-87
2023/06/27 11:26:32;;;;;;;7.90;1.70;;;;;;;21.67;44.22;100583.44;106009;1282;68440;-86
2023/06/27 11:30:19;;;;;;;5.40;2.00;;;;;;;21.57;44.11;100587.58;106057;1283;71331;-86
2023/06/27 11:34:04;;;;;;;3.90;2.20;;;;;;;21.44;44.46;100584.18;106152;1281;59561;-86
2023/06/27 11:37:52;;;;;;;5.80;2.40;;;;;;;21.29;44.52;100588.23;106172;1284;60179;-86
2023/06/27 11:41:37;;;;;;;4.80;2.40;;;;;;;21.21;44.68;100594.00;106050;1283;72068;-86
2023/06/27 11:45:19;;;;;;;5.60;1.60;;;;;;;21.19;44.66;100588.19;106086;1283;68535;-86
2023/06/27 11:49:05;;;;;;;2.80;1.30;;;;;;;21.19;44.73;100593.45;106098;1281;71375;-86
2023/06/27 11:52:51;;;;;;;5.50;1.30;;;;;;;21.29;45.08;100599.18;106111;1282;59609;-86
2023/06/27 11:56:38;;;;;;;5.00;0.90;;;;;;;21.39;44.90;100597.25;106105;1282;59612;-86
2023/06/27 12:00:25;;;;;;;5.40;1.50;;;;;;;21.37;44.79;100601.11;106026;1281;71683;-86
2023/06/27 12:04:11;;;;;;;2.60;0.80;;;;;;;21.26;44.74;100598.79;105398;1288;68594;-86
2023/06/27 12:07:57;;;;;;;1.40;0.90;;;;;;;21.15;45.00;100604.20;105299;1288;72189;-86
2023/06/27 12:11:49;;;;;;;4.50;1.60;;;;;;;21.06;45.15;100595.92;105739;1289;59180;-86
2023/06/27 12:15:10;;;;;;;2.50;0.90;;;;;;;21.07;45.36;100586.43;105347;1288;59752;-86
2023/06/27 12:18:42;;;;;;;1.50;0.90;;;;;;;21.12;45.50;100586.64;105298;1288;72488;-86
2023/06/27 12:22:31;;;;;;;2.80;0.90;;;;;;;21.11;45.56;100580.21;105347;1288;67891;-87
2023/06/27 12:26:17;;;;;;;2.10;1.00;;;;;;;21.12;45.61;100579.27;105066;1294;72436;-85
2023/06/27 12:30:06;;;;;;;5.90;1.00;;;;;;;21.21;45.95;100568.58;105148;1291;57834;-87
2023/06/27 12:33:51;;;;;;;2.50;1.00;;;;;;;21.36;45.94;100559.38;104641;1299;58929;-86
2023/06/27 12:37:38;;;;;;;2.60;0.80;;;;;;;21.51;45.66;100546.91;104714;1300;73907;-86
2023/06/27 12:41:24;;;;;;;1.80;0.70;;;;;;;21.63;45.62;100539.48;104884;1294;67745;-87
2023/06/27 12:45:10;;;;;;;6.00;0.80;;;;;;;21.69;45.47;100531.23;105151;1291;73435;-86
2023/06/27 12:48:56;;;;;;;5.00;0.90;;;;;;;21.74;45.00;100527.36;105176;1291;57475;-87
2023/06/27 13:06:38;;;;;;;3.50;0.70;;;;;;;22.07;44.44;100522.39;105632;1283;613608;-86
2023/06/27 13:10:12;;;;;;;6.20;1.00;;;;;;;22.12;44.46;100509.84;102168;1282;5387517;-86
2023/06/27 13:14:00;;;;;;;3.50;1.20;;;;;;;22.16;44.49;100513.05;106605;1281;60397;-86
2023/06/27 13:17:29;;;;;;;3.10;1.20;;;;;;;22.15;44.04;100504.36;106385;1283;71870;-86
2023/06/27 13:20:40;;;;;;;2.00;0.80;;;;;;;22.11;44.12;100498.96;106772;1285;68576;-86
2023/06/27 13:23:47;;;;;;;4.60;1.10;;;;;;;22.10;43.98;100502.02;106591;1284;72427;-86
2023/06/27 13:27:29;;;;;;;5.60;1.30;;;;;;;22.11;44.17;100497.91;105767;1283;58956;-86
2023/06/27 13:30:16;;;;;;;4.50;1.30;;;;;;;22.14;44.17;100498.77;106417;1283;58923;-86
2023/06/27 13:33:58;;;;;;;2.00;1.00;;;;;;;22.21;44.22;100501.33;106665;1283;72000;-87
2023/06/27 13:37:25;;;;;;;3.10;0.90;;;;;;;22.24;44.01;100496.40;105764;1282;70111;-86
2023/06/27 13:41:11;;;;;;;4.30;1.20;;;;;;;22.35;44.19;100495.10;105302;1289;71186;-87
2023/06/27 13:44:59;;;;;;;7.40;1.10;;;;;;;22.46;43.86;100500.13;105202;1288;59489;-86
2023/06/27 13:48:04;;;;;;;5.70;1.10;;;;;;;22.38;43.81;100497.36;105224;1288;62339;-86
2023/06/27 13:50:54;;;;;;;7.70;1.00;;;;;;;22.31;43.82;100507.52;105148;1288;71836;-84
2023/06/27 13:53:40;;;;;;;5.00;1.20;;;;;;;22.08;44.15;100513.39;105183;1288;71076;-86
2023/06/27 13:56:26;;;;;;;4.40;1.10;;;;;;;21.85;44.54;100521.77;105088;1288;71199;-85
2023/06/27 13:59:13;;;;;;;6.00;1.60;;;;;;;21.73;44.89;100521.98;105225;1288;59550;-85
2023/06/27 14:01:59;;;;;;;4.30;1.30;;;;;;;21.62;44.90;100515.67;105136;1288;60262;-85